Time;durP1;ratioP1;P1;durP2;ratioP2;P2;SDS_P1;SDS_P2;PMS_P1;PMS_P2;Temp;Humidity;BMP_temperature;BMP_pressure;BME280_temperature;BME280_humidity;BME280_pressure;Samples;Min_cycle;Max_cycle;Signal;HPM_P1;HPM_P2
2023/03/31 00:01:47;;;;;;;4.50;3.17;;;;;;;;;;5034477;28;20033;-84
2023/03/31 00:04:13;;;;;;;6.93;3.60;;;;;;;;;;5031853;28;20398;-84
2023/03/31 00:06:42;;;;;;;8.00;3.08;;;;;;;;;;5032904;28;20025;-82
2023/03/31 00:09:13;;;;;;;6.53;3.13;;;;;;;;;;5043095;28;20041;-86
2023/03/31 00:11:39;;;;;;;4.45;2.70;;;;;;;;;;5035992;28;20162;-82
2023/03/31 00:14:06;;;;;;;4.65;2.83;;;;;;;;;;5036328;28;20044;-79
2023/03/31 00:16:36;;;;;;;6.28;3.30;;;;;;;;;;5036755;28;20085;-85
2023/03/31 00:19:02;;;;;;;3.75;2.53;;;;;;;;;;5037377;28;20097;-85
2023/03/31 00:21:32;;;;;;;4.40;3.00;;;;;;;;;;5036617;28;20045;-84
2023/03/31 00:24:05;;;;;;;5.93;3.33;;;;;;;;;;5033517;28;20044;-83
2023/03/31 00:26:32;;;;;;;5.15;2.90;;;;;;;;;;5036288;28;20040;-86
2023/03/31 00:28:58;;;;;;;5.32;2.80;;;;;;;;;;5037025;28;20033;-83
2023/03/31 00:31:26;;;;;;;6.50;3.00;;;;;;;;;;5033764;28;20632;-84
2023/03/31 00:33:53;;;;;;;4.72;3.00;;;;;;;;;;5053954;23;20065;-85
2023/03/31 00:36:26;;;;;;;3.83;2.80;;;;;;;;;;5033011;28;20033;-85
2023/03/31 00:39:03;;;;;;;7.37;2.90;;;;;;;;;;5032430;28;20033;-87
2023/03/31 00:41:29;;;;;;;5.90;3.10;;;;;;;;;;5032535;28;20287;-85
2023/03/31 00:44:05;;;;;;;7.97;3.15;;;;;;;;;;5028696;28;20037;-84
2023/03/31 00:46:36;;;;;;;7.07;3.47;;;;;;;;;;5015040;28;20036;-85
2023/03/31 00:49:02;;;;;;;3.88;2.80;;;;;;;;;;5015170;28;20084;-85
2023/03/31 00:51:32;;;;;;;6.10;3.13;;;;;;;;;;5014411;28;20033;-85
2023/03/31 00:54:05;;;;;;;6.10;3.10;;;;;;;;;;5012657;28;20470;-85
2023/03/31 00:56:40;;;;;;;4.72;2.90;;;;;;;;;;5014451;28;20110;-85
2023/03/31 00:59:09;;;;;;;5.32;3.00;;;;;;;;;;5014710;28;20109;-85
2023/03/31 01:01:38;;;;;;;4.43;3.00;;;;;;;;;;5012289;28;20113;-86
2023/03/31 01:04:06;;;;;;;5.32;3.53;;;;;;;;;;5027581;28;20029;-85
2023/03/31 01:06:32;;;;;;;7.80;3.28;;;;;;;;;;5015700;28;20026;-86
2023/03/31 01:08:58;;;;;;;5.55;2.88;;;;;;;;;;5014584;28;20053;-86
2023/03/31 01:11:26;;;;;;;6.38;3.38;;;;;;;;;;5014236;28;20050;-84
2023/03/31 01:13:55;;;;;;;5.15;3.20;;;;;;;;;;5014849;28;20045;-86
2023/03/31 01:16:21;;;;;;;6.47;3.00;;;;;;;;;;5016401;28;20033;-86
2023/03/31 01:18:48;;;;;;;8.35;3.45;;;;;;;;;;5014061;28;20053;-86
2023/03/31 01:21:37;;;;;;;5.82;2.95;;;;;;;;;;5014732;28;20108;-86
2023/03/31 01:24:24;;;;;;;6.13;3.30;;;;;;;;;;5000860;28;20046;-85
2023/03/31 01:27:14;;;;;;;5.63;3.13;;;;;;;;;;5012930;28;20030;-86
2023/03/31 01:29:57;;;;;;;4.47;3.47;;;;;;;;;;4998938;28;20043;-86
2023/03/31 01:32:49;;;;;;;5.85;3.30;;;;;;;;;;4999272;28;20038;-85
2023/03/31 01:35:36;;;;;;;5.57;3.10;;;;;;;;;;5013761;28;20052;-85
2023/03/31 01:38:18;;;;;;;7.50;3.40;;;;;;;;;;5010858;28;20070;-85
2023/03/31 01:41:14;;;;;;;4.50;3.25;;;;;;;;;;5018355;28;20045;-85
2023/03/31 01:43:45;;;;;;;5.25;3.60;;;;;;;;;;5018949;28;20046;-87
2023/03/31 01:46:36;;;;;;;6.43;3.40;;;;;;;;;;5014304;28;20034;-85
2023/03/31 01:49:05;;;;;;;6.75;3.28;;;;;;;;;;5019301;28;20064;-85
2023/03/31 01:51:45;;;;;;;6.35;3.28;;;;;;;;;;5019108;28;20045;-86
2023/03/31 01:54:29;;;;;;;4.28;3.25;;;;;;;;;;5018545;28;20073;-85
2023/03/31 01:57:00;;;;;;;7.45;3.00;;;;;;;;;;5032130;28;20046;-85
2023/03/31 01:59:36;;;;;;;7.20;3.25;;;;;;;;;;5010513;28;20041;-86
2023/03/31 02:02:09;;;;;;;5.25;3.20;;;;;;;;;;5018184;28;20069;-86
2023/03/31 02:04:47;;;;;;;5.72;3.30;;;;;;;;;;5019437;28;20471;-85
2023/03/31 02:07:23;;;;;;;5.78;3.50;;;;;;;;;;5018683;28;20152;-86
2023/03/31 02:09:55;;;;;;;6.05;3.45;;;;;;;;;;5009602;28;20042;-86
2023/03/31 02:12:25;;;;;;;5.93;3.15;;;;;;;;;;5019085;28;20034;-85
2023/03/31 02:14:53;;;;;;;5.65;3.22;;;;;;;;;;5018106;28;20046;-85
2023/03/31 02:17:29;;;;;;;6.43;3.35;;;;;;;;;;5002046;28;20136;-86
2023/03/31 02:19:58;;;;;;;5.43;3.58;;;;;;;;;;5020038;28;20041;-85
2023/03/31 02:22:29;;;;;;;4.72;3.20;;;;;;;;;;5018808;28;20030;-85
2023/03/31 02:24:55;;;;;;;6.90;3.58;;;;;;;;;;5017918;28;20426;-85
2023/03/31 02:27:24;;;;;;;4.78;2.90;;;;;;;;;;5026029;28;20038;-86
2023/03/31 02:29:51;;;;;;;6.28;3.25;;;;;;;;;;5018542;28;20414;-86
2023/03/31 02:32:31;;;;;;;6.05;3.08;;;;;;;;;;5018357;28;20041;-86
2023/03/31 02:34:58;;;;;;;4.35;3.15;;;;;;;;;;5014832;28;20033;-85
2023/03/31 02:37:24;;;;;;;5.88;3.42;;;;;;;;;;5020208;28;20033;-86
2023/03/31 02:39:52;;;;;;;6.03;3.40;;;;;;;;;;5027273;28;20044;-86
2023/03/31 02:42:19;;;;;;;5.65;3.30;;;;;;;;;;5017588;28;20037;-85
2023/03/31 02:44:45;;;;;;;8.20;3.47;;;;;;;;;;5020764;28;20038;-86
2023/03/31 02:47:13;;;;;;;6.70;3.78;;;;;;;;;;5019660;28;20088;-86
2023/03/31 02:49:42;;;;;;;5.60;3.30;;;;;;;;;;5019459;28;20046;-85
2023/03/31 02:52:11;;;;;;;6.28;3.30;;;;;;;;;;5016241;28;20041;-86
2023/03/31 02:54:52;;;;;;;7.10;3.60;;;;;;;;;;5016275;28;20498;-86
2023/03/31 02:57:34;;;;;;;5.05;3.20;;;;;;;;;;5015442;28;20073;-86
2023/03/31 03:00:09;;;;;;;4.90;3.33;;;;;;;;;;5034237;28;20038;-86
2023/03/31 03:02:55;;;;;;;4.97;3.42;;;;;;;;;;5034280;28;20102;-84
2023/03/31 03:05:37;;;;;;;6.35;3.30;;;;;;;;;;5016227;28;20041;-85
2023/03/31 03:08:34;;;;;;;5.63;3.25;;;;;;;;;;5001939;28;20041;-86
2023/03/31 03:11:26;;;;;;;4.85;3.30;;;;;;;;;;5016169;28;20044;-86
2023/03/31 03:13:53;;;;;;;7.03;3.60;;;;;;;;;;5017361;28;20414;-86
2023/03/31 03:16:31;;;;;;;7.88;3.17;;;;;;;;;;5018385;28;20034;-85
2023/03/31 03:18:59;;;;;;;6.80;3.50;;;;;;;;;;5016939;28;20127;-85
2023/03/31 03:21:26;;;;;;;5.07;3.40;;;;;;;;;;5016330;28;20049;-86
2023/03/31 03:23:53;;;;;;;7.32;3.53;;;;;;;;;;5018646;28;20548;-85
2023/03/31 03:26:27;;;;;;;6.43;3.83;;;;;;;;;;5018637;28;20034;-86
2023/03/31 03:28:56;;;;;;;5.40;3.70;;;;;;;;;;5018549;28;20058;-85
2023/03/31 03:31:22;;;;;;;6.00;3.42;;;;;;;;;;5029809;28;20564;-86
2023/03/31 03:33:51;;;;;;;6.57;3.60;;;;;;;;;;5018240;28;20037;-85
2023/03/31 03:36:17;;;;;;;6.68;3.53;;;;;;;;;;5014362;28;20048;-86
2023/03/31 03:38:43;;;;;;;5.40;3.42;;;;;;;;;;5026534;28;20065;-86
2023/03/31 03:41:09;;;;;;;7.43;3.80;;;;;;;;;;5018412;28;20053;-86
2023/03/31 03:43:35;;;;;;;6.55;3.60;;;;;;;;;;5013460;28;20044;-85
2023/03/31 03:46:00;;;;;;;7.15;3.55;;;;;;;;;;5031505;28;20037;-85
2023/03/31 03:48:26;;;;;;;5.30;3.67;;;;;;;;;;5018738;28;20434;-85
2023/03/31 03:50:52;;;;;;;4.60;3.42;;;;;;;;;;5016357;28;20595;-86
2023/03/31 03:53:17;;;;;;;8.93;4.35;;;;;;;;;;5015962;28;20394;-85
2023/03/31 03:55:44;;;;;;;5.90;3.90;;;;;;;;;;5028104;28;20502;-85
2023/03/31 03:58:10;;;;;;;5.63;3.95;;;;;;;;;;5020675;28;20509;-86
2023/03/31 04:00:35;;;;;;;5.57;4.05;;;;;;;;;;5018980;28;20034;-86
2023/03/31 04:03:01;;;;;;;5.45;3.90;;;;;;;;;;5031786;28;20046;-85
2023/03/31 04:05:26;;;;;;;6.38;3.50;;;;;;;;;;5020367;28;20034;-85
2023/03/31 04:07:52;;;;;;;7.70;4.05;;;;;;;;;;5020750;28;20061;-86
2023/03/31 04:10:17;;;;;;;5.47;3.70;;;;;;;;;;5021237;28;20042;-86
2023/03/31 04:12:43;;;;;;;5.28;3.65;;;;;;;;;;5021004;28;20037;-85
2023/03/31 04:15:09;;;;;;;5.82;3.67;;;;;;;;;;5018331;28;20049;-86
2023/03/31 04:17:35;;;;;;;5.93;3.50;;;;;;;;;;5020862;28;20048;-86
2023/03/31 04:20:04;;;;;;;7.18;4.22;;;;;;;;;;5020626;28;20405;-85
2023/03/31 04:22:34;;;;;;;7.10;4.25;;;;;;;;;;5019470;28;20041;-85
2023/03/31 04:25:09;;;;;;;7.35;3.92;;;;;;;;;;5017688;28;20030;-85
2023/03/31 04:27:35;;;;;;;6.70;3.97;;;;;;;;;;5023360;28;20456;-86
2023/03/31 04:30:00;;;;;;;7.20;4.25;;;;;;;;;;5020456;28;20046;-86
2023/03/31 04:32:27;;;;;;;6.65;3.95;;;;;;;;;;5019063;28;20052;-86
2023/03/31 04:35:01;;;;;;;6.32;3.58;;;;;;;;;;5017051;28;20033;-86
2023/03/31 04:37:33;;;;;;;6.65;3.90;;;;;;;;;;5018475;28;20072;-86
2023/03/31 04:40:06;;;;;;;6.00;4.00;;;;;;;;;;5000266;28;20041;-86
2023/03/31 04:42:32;;;;;;;6.95;4.05;;;;;;;;;;5016297;28;20038;-86
2023/03/31 04:44:57;;;;;;;8.75;4.38;;;;;;;;;;5015630;28;20044;-86
2023/03/31 04:47:23;;;;;;;8.05;4.57;;;;;;;;;;5016609;28;20457;-86
2023/03/31 04:49:48;;;;;;;7.80;5.60;;;;;;;;;;5017419;28;20034;-86
2023/03/31 04:52:14;;;;;;;9.32;5.03;;;;;;;;;;5017514;28;20070;-85
2023/03/31 04:54:39;;;;;;;9.13;5.68;;;;;;;;;;5025949;28;20029;-85
2023/03/31 04:57:05;;;;;;;11.65;5.80;;;;;;;;;;5017700;28;20530;-86
2023/03/31 04:59:30;;;;;;;7.35;4.30;;;;;;;;;;5012763;28;20038;-85
2023/03/31 05:01:56;;;;;;;7.07;3.88;;;;;;;;;;5017997;28;20110;-86
2023/03/31 05:04:21;;;;;;;7.13;4.20;;;;;;;;;;5016463;28;20029;-86
2023/03/31 05:06:47;;;;;;;7.53;4.45;;;;;;;;;;5024184;28;20106;-86
2023/03/31 05:09:12;;;;;;;10.20;4.85;;;;;;;;;;5015063;28;20025;-85
2023/03/31 05:11:38;;;;;;;6.88;4.65;;;;;;;;;;5015634;28;20647;-86
2023/03/31 05:14:03;;;;;;;9.35;5.60;;;;;;;;;;5012007;28;20038;-86
2023/03/31 05:16:29;;;;;;;7.13;4.00;;;;;;;;;;5033014;28;20479;-86
2023/03/31 05:18:54;;;;;;;7.13;4.60;;;;;;;;;;5023577;28;20029;-85
2023/03/31 05:21:20;;;;;;;7.82;4.20;;;;;;;;;;5037558;28;20038;-85
2023/03/31 05:23:46;;;;;;;7.78;4.32;;;;;;;;;;5034479;28;20038;-86
2023/03/31 05:26:13;;;;;;;6.18;4.40;;;;;;;;;;5021078;28;20017;-85
2023/03/31 05:28:38;;;;;;;5.45;3.60;;;;;;;;;;5022128;28;20029;-86
2023/03/31 05:31:05;;;;;;;7.95;4.03;;;;;;;;;;5023277;28;20049;-86
2023/03/31 05:33:31;;;;;;;5.47;3.80;;;;;;;;;;5034893;28;20151;-86
2023/03/31 05:35:59;;;;;;;6.45;4.03;;;;;;;;;;5021293;28;20479;-86
2023/03/31 05:38:27;;;;;;;6.03;4.00;;;;;;;;;;5021442;28;20108;-85
2023/03/31 05:40:54;;;;;;;6.20;4.15;;;;;;;;;;5035098;28;20053;-86
2023/03/31 05:43:20;;;;;;;6.93;4.30;;;;;;;;;;5022293;28;20482;-86
2023/03/31 05:45:46;;;;;;;8.60;4.40;;;;;;;;;;5019904;28;20065;-85
2023/03/31 05:48:11;;;;;;;11.05;5.18;;;;;;;;;;5021907;28;20405;-86
2023/03/31 05:50:37;;;;;;;8.88;4.70;;;;;;;;;;5020918;28;20046;-85
2023/03/31 05:53:02;;;;;;;6.65;3.80;;;;;;;;;;5036930;28;20056;-85
2023/03/31 05:55:28;;;;;;;5.80;3.75;;;;;;;;;;5026608;28;20060;-85
2023/03/31 05:57:53;;;;;;;8.15;4.88;;;;;;;;;;5020599;28;20046;-84
2023/03/31 06:00:19;;;;;;;8.30;5.43;;;;;;;;;;5035177;28;20042;-86
2023/03/31 06:02:45;;;;;;;7.32;5.07;;;;;;;;;;5035909;28;20049;-85
2023/03/31 06:05:11;;;;;;;7.25;4.07;;;;;;;;;;5020378;28;20033;-84
2023/03/31 06:07:36;;;;;;;6.03;4.07;;;;;;;;;;5020558;28;20033;-83
2023/03/31 06:10:02;;;;;;;7.18;4.95;;;;;;;;;;5020478;28;20041;-84
2023/03/31 06:12:27;;;;;;;8.52;5.40;;;;;;;;;;5020420;28;20030;-84
2023/03/31 06:14:53;;;;;;;6.75;4.05;;;;;;;;;;5021282;28;20490;-84
2023/03/31 06:17:18;;;;;;;8.77;4.40;;;;;;;;;;5022452;28;20037;-84
2023/03/31 06:19:44;;;;;;;7.07;4.07;;;;;;;;;;5022734;28;20091;-85
2023/03/31 06:22:09;;;;;;;6.72;4.05;;;;;;;;;;5021131;28;20053;-85
2023/03/31 06:24:35;;;;;;;7.65;3.65;;;;;;;;;;5033513;28;20045;-83
2023/03/31 06:27:00;;;;;;;7.32;4.30;;;;;;;;;;5017259;28;20038;-83
2023/03/31 06:29:26;;;;;;;7.15;4.20;;;;;;;;;;5016510;28;20033;-86
2023/03/31 06:31:52;;;;;;;8.32;3.95;;;;;;;;;;5017720;28;20080;-84
2023/03/31 06:34:17;;;;;;;7.55;3.80;;;;;;;;;;5018151;28;20034;-84
2023/03/31 06:39:24;;;;;;;5.63;3.22;;;;;;;;;;4937557;29;20103;-83
2023/03/31 06:41:49;;;;;;;6.07;3.88;;;;;;;;;;4951741;29;20040;-83
2023/03/31 06:44:24;;;;;;;7.53;3.90;;;;;;;;;;4949321;29;20059;-82
2023/03/31 06:46:50;;;;;;;7.32;3.35;;;;;;;;;;4934371;29;20584;-84
2023/03/31 06:49:15;;;;;;;8.02;3.40;;;;;;;;;;4932670;29;20028;-83
2023/03/31 06:51:40;;;;;;;5.35;3.30;;;;;;;;;;4933729;29;20064;-84
2023/03/31 06:54:06;;;;;;;6.47;3.38;;;;;;;;;;4935557;29;20036;-85
2023/03/31 06:56:32;;;;;;;5.93;3.10;;;;;;;;;;4938529;29;20514;-82
2023/03/31 06:58:57;;;;;;;5.78;3.40;;;;;;;;;;4940334;29;20502;-82
2023/03/31 07:01:23;;;;;;;10.60;3.72;;;;;;;;;;4943071;29;20036;-82
2023/03/31 07:03:48;;;;;;;7.00;3.75;;;;;;;;;;4959708;28;20056;-84
2023/03/31 07:06:14;;;;;;;6.03;3.47;;;;;;;;;;4945640;29;20103;-83
2023/03/31 07:08:39;;;;;;;6.88;3.58;;;;;;;;;;4946963;29;20036;-83
2023/03/31 07:11:05;;;;;;;6.03;3.60;;;;;;;;;;4950946;29;20044;-83
2023/03/31 07:13:30;;;;;;;7.93;3.70;;;;;;;;;;4935682;29;20067;-81
2023/03/31 07:15:56;;;;;;;7.75;4.28;;;;;;;;;;4936159;29;20032;-82
2023/03/31 07:18:31;;;;;;;9.77;4.47;;;;;;;;;;4944586;29;20020;-82
2023/03/31 07:20:57;;;;;;;8.18;4.15;;;;;;;;;;4953561;29;20032;-81
2023/03/31 07:23:22;;;;;;;9.65;3.90;;;;;;;;;;4941725;29;20063;-83
2023/03/31 07:25:48;;;;;;;6.93;4.35;;;;;;;;;;4942837;29;20039;-82
2023/03/31 07:28:14;;;;;;;5.15;3.40;;;;;;;;;;4941613;29;20050;-81
2023/03/31 07:30:40;;;;;;;5.63;3.40;;;;;;;;;;4941198;29;20058;-82
2023/03/31 07:33:06;;;;;;;7.22;3.58;;;;;;;;;;4950581;29;20473;-82
2023/03/31 07:35:31;;;;;;;8.10;3.50;;;;;;;;;;4926236;29;20035;-82
2023/03/31 07:37:57;;;;;;;5.57;3.53;;;;;;;;;;4931469;29;20622;-81
2023/03/31 07:40:25;;;;;;;6.43;3.20;;;;;;;;;;4934109;29;20091;-83
2023/03/31 07:42:52;;;;;;;5.75;3.40;;;;;;;;;;4951352;29;20040;-84
2023/03/31 07:45:19;;;;;;;6.93;3.50;;;;;;;;;;4938373;28;20023;-84
2023/03/31 07:47:45;;;;;;;6.13;3.10;;;;;;;;;;4942331;29;20051;-81
2023/03/31 07:50:12;;;;;;;5.75;3.15;;;;;;;;;;4932950;29;20374;-81
2023/03/31 07:52:38;;;;;;;4.80;3.05;;;;;;;;;;4928646;29;20042;-82
2023/03/31 07:55:05;;;;;;;9.23;3.40;;;;;;;;;;4932385;29;20496;-83
2023/03/31 07:57:30;;;;;;;5.55;3.10;;;;;;;;;;4935820;29;20036;-82
2023/03/31 08:00:34;;;;;;;7.93;3.50;;;;;;;;;;5069373;28;20288;-83
2023/03/31 08:03:00;;;;;;;6.45;3.60;;;;;;;;;;5066456;28;20056;-82
2023/03/31 08:05:26;;;;;;;5.40;3.15;;;;;;;;;;5061791;28;20083;-81
2023/03/31 08:07:52;;;;;;;6.72;3.47;;;;;;;;;;5058448;28;20063;-83
2023/03/31 08:10:24;;;;;;;6.00;3.20;;;;;;;;;;5063449;28;20029;-84
2023/03/31 08:12:50;;;;;;;5.40;3.43;;;;;;;;;;5071288;28;20032;-83
2023/03/31 08:15:16;;;;;;;5.57;3.50;;;;;;;;;;5077987;28;20040;-84
2023/03/31 08:17:41;;;;;;;6.10;3.50;;;;;;;;;;5073943;28;20033;-82
2023/03/31 08:20:09;;;;;;;7.72;4.20;;;;;;;;;;5073185;28;20055;-83
2023/03/31 08:22:38;;;;;;;6.53;3.47;;;;;;;;;;5072953;28;20037;-83
2023/03/31 08:25:05;;;;;;;5.93;3.38;;;;;;;;;;5074702;28;20155;-82
2023/03/31 08:27:35;;;;;;;9.93;3.85;;;;;;;;;;5072910;28;20032;-83
2023/03/31 08:30:03;;;;;;;5.45;3.70;;;;;;;;;;5067651;28;20059;-83
2023/03/31 08:32:33;;;;;;;5.70;3.80;;;;;;;;;;5082341;28;20024;-83
2023/03/31 08:34:59;;;;;;;8.38;3.90;;;;;;;;;;5077358;28;20106;-85
2023/03/31 08:37:27;;;;;;;8.10;3.75;;;;;;;;;;5075883;28;20033;-83
2023/03/31 08:39:53;;;;;;;6.63;3.50;;;;;;;;;;5072621;28;20037;-84
2023/03/31 08:42:22;;;;;;;5.53;3.30;;;;;;;;;;5067548;28;20025;-85
2023/03/31 08:45:17;;;;;;;6.57;3.72;;;;;;;;;;5069984;28;20040;-85
2023/03/31 08:47:44;;;;;;;6.75;3.80;;;;;;;;;;5060381;28;20048;-84
2023/03/31 08:50:21;;;;;;;7.72;3.95;;;;;;;;;;5071576;28;20027;-85
2023/03/31 08:52:51;;;;;;;13.93;4.72;;;;;;;;;;5077213;28;20055;-85
2023/03/31 08:55:24;;;;;;;8.25;4.88;;;;;;;;;;5069464;28;20048;-84
2023/03/31 08:58:16;;;;;;;7.22;3.80;;;;;;;;;;5065677;28;20035;-84
2023/03/31 09:01:00;;;;;;;9.30;5.93;;;;;;;;;;5071070;28;20037;-86
2023/03/31 09:03:42;;;;;;;11.95;6.68;;;;;;;;;;5072281;28;20040;-85
2023/03/31 09:06:16;;;;;;;11.57;6.07;;;;;;;;;;5071890;28;20464;-82
2023/03/31 09:08:43;;;;;;;7.57;4.55;;;;;;;;;;5063556;28;20080;-85
2023/03/31 09:11:12;;;;;;;8.82;4.30;;;;;;;;;;5069382;28;20033;-84
2023/03/31 09:14:12;;;;;;;6.70;3.78;;;;;;;;;;5069070;28;20052;-86
2023/03/31 09:16:51;;;;;;;8.18;3.92;;;;;;;;;;5063994;28;20040;-86
2023/03/31 09:19:26;;;;;;;7.50;3.58;;;;;;;;;;5059751;28;20071;-85
2023/03/31 09:21:54;;;;;;;6.50;3.17;;;;;;;;;;5072852;28;20059;-87
2023/03/31 09:24:26;;;;;;;7.90;3.33;;;;;;;;;;5072067;28;20033;-89
2023/03/31 09:26:55;;;;;;;6.32;3.30;;;;;;;;;;5066633;28;20036;-85
2023/03/31 09:29:28;;;;;;;4.65;3.00;;;;;;;;;;5061418;28;20204;-85
2023/03/31 09:31:55;;;;;;;8.15;4.90;;;;;;;;;;5056426;28;20044;-85
2023/03/31 09:34:26;;;;;;;5.13;3.38;;;;;;;;;;5055027;28;20463;-85
2023/03/31 09:36:51;;;;;;;8.52;3.75;;;;;;;;;;5067876;28;20055;-86
2023/03/31 09:39:17;;;;;;;5.57;3.60;;;;;;;;;;5066417;28;20053;-86
2023/03/31 09:41:46;;;;;;;6.10;3.60;;;;;;;;;;5059649;28;20002;-85
2023/03/31 09:44:25;;;;;;;6.60;3.50;;;;;;;;;;5057314;28;20063;-87
2023/03/31 09:46:51;;;;;;;5.15;3.08;;;;;;;;;;5054040;28;20041;-85
2023/03/31 09:49:20;;;;;;;9.13;3.42;;;;;;;;;;5058332;28;20089;-85
2023/03/31 09:51:51;;;;;;;5.75;3.05;;;;;;;;;;5061515;28;20033;-86
2023/03/31 09:54:28;;;;;;;6.35;3.28;;;;;;;;;;5057202;28;20056;-84
2023/03/31 09:56:54;;;;;;;4.70;3.10;;;;;;;;;;5066598;28;20036;-83
2023/03/31 09:59:30;;;;;;;4.70;3.00;;;;;;;;;;5063729;28;20041;-84
2023/03/31 10:02:01;;;;;;;6.25;3.85;;;;;;;;;;5080820;28;20055;-87
2023/03/31 10:04:29;;;;;;;7.57;3.65;;;;;;;;;;5086157;28;20037;-85
2023/03/31 10:06:55;;;;;;;7.70;3.80;;;;;;;;;;5079285;28;20024;-83
2023/03/31 10:09:26;;;;;;;7.40;3.95;;;;;;;;;;5078862;28;20063;-84
2023/03/31 10:12:15;;;;;;;7.45;4.05;;;;;;;;;;5071678;28;20074;-82
2023/03/31 10:14:46;;;;;;;7.30;4.30;;;;;;;;;;5068374;28;20044;-84
2023/03/31 10:17:17;;;;;;;6.82;4.40;;;;;;;;;;5084647;28;20080;-82
2023/03/31 10:19:50;;;;;;;7.45;4.20;;;;;;;;;;5064050;28;20032;-84
2023/03/31 10:22:26;;;;;;;6.77;4.03;;;;;;;;;;5076243;28;20029;-83
2023/03/31 10:24:52;;;;;;;7.70;3.95;;;;;;;;;;5070923;28;20060;-84
2023/03/31 10:27:29;;;;;;;5.65;4.05;;;;;;;;;;5089458;28;20062;-83
2023/03/31 10:30:00;;;;;;;7.60;4.25;;;;;;;;;;5065783;28;20033;-83
2023/03/31 10:32:29;;;;;;;7.20;4.18;;;;;;;;;;5065947;28;20035;-83
2023/03/31 10:34:57;;;;;;;6.43;4.00;;;;;;;;;;5076505;28;20028;-82
2023/03/31 10:37:27;;;;;;;6.88;3.88;;;;;;;;;;5077386;28;20067;-82
2023/03/31 10:40:20;;;;;;;6.85;4.10;;;;;;;;;;5075109;28;20040;-82
2023/03/31 10:42:49;;;;;;;7.37;3.60;;;;;;;;;;5077452;28;20048;-84
2023/03/31 10:45:30;;;;;;;6.35;3.72;;;;;;;;;;5081149;28;20056;-84
2023/03/31 10:47:58;;;;;;;5.97;3.92;;;;;;;;;;5069113;28;20038;-85
2023/03/31 10:50:31;;;;;;;6.85;4.10;;;;;;;;;;5073582;28;20013;-84
2023/03/31 10:53:05;;;;;;;8.25;4.20;;;;;;;;;;5073437;28;20050;-86
2023/03/31 10:56:09;;;;;;;6.07;3.97;;;;;;;;;;5085441;28;20040;-83
2023/03/31 10:58:53;;;;;;;9.75;4.40;;;;;;;;;;5077396;28;20148;-83
2023/03/31 11:01:44;;;;;;;8.73;4.30;;;;;;;;;;5073307;28;20031;-84
2023/03/31 11:04:09;;;;;;;6.10;4.18;;;;;;;;;;5080612;28;20036;-83
2023/03/31 11:07:05;;;;;;;7.35;4.55;;;;;;;;;;5065732;28;20035;-83
2023/03/31 11:09:34;;;;;;;8.13;4.80;;;;;;;;;;5077346;28;20033;-82
2023/03/31 11:12:05;;;;;;;7.97;4.20;;;;;;;;;;5055914;28;20032;-82
2023/03/31 11:14:41;;;;;;;10.18;4.40;;;;;;;;;;5050363;28;20067;-84
2023/03/31 11:17:40;;;;;;;6.38;3.75;;;;;;;;;;5066261;28;20036;-83
2023/03/31 11:20:20;;;;;;;7.47;3.83;;;;;;;;;;5074647;28;20033;-83
2023/03/31 11:23:06;;;;;;;7.68;4.03;;;;;;;;;;5068704;28;20033;-82
2023/03/31 11:25:49;;;;;;;7.25;4.50;;;;;;;;;;5071806;28;20044;-82
2023/03/31 11:28:32;;;;;;;6.88;3.85;;;;;;;;;;5067573;28;20033;-81
2023/03/31 11:31:16;;;;;;;5.15;3.35;;;;;;;;;;5063556;28;20105;-82
2023/03/31 11:34:09;;;;;;;5.13;3.13;;;;;;;;;;5079136;28;20025;-83
2023/03/31 11:36:50;;;;;;;5.45;2.95;;;;;;;;;;5078831;28;20103;-82
2023/03/31 11:39:43;;;;;;;6.72;3.70;;;;;;;;;;5074434;28;20037;-84
2023/03/31 11:42:34;;;;;;;7.40;3.20;;;;;;;;;;5072326;28;20028;-82
2023/03/31 11:45:12;;;;;;;5.30;2.90;;;;;;;;;;5053453;28;20059;-83
2023/03/31 11:47:43;;;;;;;6.43;3.42;;;;;;;;;;5081968;28;20536;-84
2023/03/31 11:50:18;;;;;;;5.07;3.35;;;;;;;;;;5077787;28;20112;-82
2023/03/31 11:52:53;;;;;;;4.68;3.00;;;;;;;;;;5080286;28;20040;-83
2023/03/31 11:55:22;;;;;;;5.38;3.20;;;;;;;;;;5051874;28;20100;-82
2023/03/31 11:57:59;;;;;;;5.60;3.17;;;;;;;;;;5085078;28;20124;-82
2023/03/31 12:00:31;;;;;;;4.10;3.10;;;;;;;;;;5062514;28;20127;-82
2023/03/31 12:03:06;;;;;;;3.80;2.80;;;;;;;;;;5074982;28;20041;-82
2023/03/31 12:05:35;;;;;;;6.22;3.10;;;;;;;;;;5084704;28;20082;-82
2023/03/31 12:08:13;;;;;;;5.13;2.92;;;;;;;;;;5085078;28;20090;-82
2023/03/31 12:10:45;;;;;;;4.30;2.83;;;;;;;;;;5080721;28;20493;-83
2023/03/31 12:13:49;;;;;;;4.25;2.65;;;;;;;;;;5075628;28;20017;-85
2023/03/31 12:16:45;;;;;;;3.80;2.80;;;;;;;;;;5017233;28;20112;-83
2023/03/31 12:19:17;;;;;;;4.43;2.60;;;;;;;;;;5059688;28;20121;-82
2023/03/31 12:21:49;;;;;;;3.90;2.65;;;;;;;;;;5073620;28;20036;-82
2023/03/31 12:24:15;;;;;;;3.88;2.55;;;;;;;;;;5062081;28;20036;-82
2023/03/31 12:26:58;;;;;;;5.50;2.70;;;;;;;;;;5052087;28;20135;-84
2023/03/31 12:29:23;;;;;;;5.53;2.47;;;;;;;;;;5065725;28;20033;-81
2023/03/31 12:31:54;;;;;;;5.70;2.50;;;;;;;;;;5072952;28;20035;-83
2023/03/31 12:34:22;;;;;;;5.20;2.95;;;;;;;;;;5061597;28;20463;-82
2023/03/31 12:37:34;;;;;;;5.95;2.92;;;;;;;;;;5050381;28;20052;-83
2023/03/31 12:40:36;;;;;;;5.95;3.70;;;;;;;;;;4983002;28;20070;-83
2023/03/31 12:43:15;;;;;;;5.65;3.30;;;;;;;;;;4969071;28;20038;-84
2023/03/31 12:46:17;;;;;;;3.28;1.90;;;;;;;;;;5037252;28;20087;-82
2023/03/31 12:49:07;;;;;;;3.47;2.35;;;;;;;;;;5069497;22;20501;-87
2023/03/31 12:52:04;;;;;;;3.03;1.92;;;;;;;;;;5019829;28;20383;-85
2023/03/31 12:55:00;;;;;;;3.72;1.90;;;;;;;;;;5042420;28;20040;-86
2023/03/31 12:57:26;;;;;;;2.70;1.75;;;;;;;;;;5019868;28;20041;-87
2023/03/31 13:00:11;;;;;;;2.90;1.95;;;;;;;;;;5033436;28;20034;-85
2023/03/31 13:02:37;;;;;;;3.92;2.30;;;;;;;;;;5028065;28;20120;-86
2023/03/31 13:05:37;;;;;;;3.30;2.33;;;;;;;;;;5006054;28;20038;-85
2023/03/31 13:08:06;;;;;;;3.22;2.13;;;;;;;;;;5018641;28;20052;-84
2023/03/31 13:10:51;;;;;;;3.42;2.03;;;;;;;;;;5028017;28;20398;-86
2023/03/31 13:13:17;;;;;;;3.97;2.30;;;;;;;;;;5026179;28;20482;-87
2023/03/31 13:15:54;;;;;;;3.20;2.10;;;;;;;;;;5016757;28;20052;-85
2023/03/31 13:18:21;;;;;;;4.05;2.30;;;;;;;;;;5028014;28;20071;-84
2023/03/31 13:20:58;;;;;;;2.65;1.65;;;;;;;;;;5027797;28;20045;-87
2023/03/31 13:23:24;;;;;;;2.47;1.80;;;;;;;;;;5010811;28;20034;-86
2023/03/31 13:25:55;;;;;;;4.88;2.15;;;;;;;;;;5020669;28;20036;-86
2023/03/31 13:28:20;;;;;;;5.15;2.17;;;;;;;;;;5035494;28;20038;-88
2023/03/31 13:30:53;;;;;;;4.68;2.30;;;;;;;;;;5012070;28;20037;-88
2023/03/31 13:33:27;;;;;;;7.85;3.88;;;;;;;;;;5011176;28;20045;-85
2023/03/31 13:36:01;;;;;;;;;;;;;;;;;;5026301;28;20038;-85
2023/03/31 13:38:46;;;;;;;3.50;2.15;;;;;;;;;;5029138;28;19913;-84
2023/03/31 13:41:45;;;;;;;4.05;2.40;;;;;;;;;;5023293;28;20033;-87
2023/03/31 13:44:33;;;;;;;3.00;1.90;;;;;;;;;;5013367;28;20410;-86
2023/03/31 13:47:17;;;;;;;2.78;1.60;;;;;;;;;;5033077;28;20091;-85
2023/03/31 13:50:33;;;;;;;2.40;1.30;;;;;;;;;;5026833;28;20029;-86
2023/03/31 13:53:24;;;;;;;2.25;1.27;;;;;;;;;;4989754;28;20038;-84
2023/03/31 13:56:22;;;;;;;5.95;1.40;;;;;;;;;;5024298;28;20193;-84
2023/03/31 13:59:22;;;;;;;2.00;1.13;;;;;;;;;;5025130;28;20030;-85
2023/03/31 14:02:10;;;;;;;5.35;1.33;;;;;;;;;;5006486;28;20054;-86
2023/03/31 14:04:46;;;;;;;2.58;1.10;;;;;;;;;;5005231;28;20033;-85
2023/03/31 14:07:17;;;;;;;2.72;1.08;;;;;;;;;;5020181;28;20460;-86
2023/03/31 14:09:51;;;;;;;2.53;1.05;;;;;;;;;;5025322;28;20446;-85
2023/03/31 14:12:43;;;;;;;1.77;1.05;;;;;;;;;;5028594;28;20084;-86
2023/03/31 14:15:20;;;;;;;1.30;0.85;;;;;;;;;;5012048;28;20037;-85
2023/03/31 14:17:45;;;;;;;2.55;1.10;;;;;;;;;;5004601;28;20042;-84
2023/03/31 14:20:48;;;;;;;1.80;0.90;;;;;;;;;;5018666;28;20038;-85
2023/03/31 14:23:29;;;;;;;2.38;0.90;;;;;;;;;;5010660;28;20025;-87
2023/03/31 14:25:58;;;;;;;3.20;0.98;;;;;;;;;;5006149;28;20033;-84
2023/03/31 14:29:00;;;;;;;1.58;0.90;;;;;;;;;;5005028;28;20026;-85
2023/03/31 14:31:36;;;;;;;3.45;1.70;;;;;;;;;;5007492;28;20029;-85
2023/03/31 14:34:14;;;;;;;2.47;1.40;;;;;;;;;;5022650;28;20523;-85
2023/03/31 14:36:46;;;;;;;3.17;1.90;;;;;;;;;;5016762;28;20063;-84
2023/03/31 14:39:16;;;;;;;3.30;1.92;;;;;;;;;;5019106;28;20130;-84
2023/03/31 14:41:43;;;;;;;1.73;1.13;;;;;;;;;;5003180;28;20482;-84
2023/03/31 14:44:14;;;;;;;3.20;1.38;;;;;;;;;;5033876;28;20108;-85
2023/03/31 14:46:40;;;;;;;2.95;1.30;;;;;;;;;;5014352;28;20122;-83
2023/03/31 14:49:18;;;;;;;2.10;1.40;;;;;;;;;;5030014;28;20103;-83
2023/03/31 14:51:44;;;;;;;3.13;1.40;;;;;;;;;;5029941;28;20385;-83
2023/03/31 14:54:18;;;;;;;2.05;0.93;;;;;;;;;;5030885;28;20415;-85
2023/03/31 14:56:48;;;;;;;1.73;1.25;;;;;;;;;;5030666;28;20028;-84
2023/03/31 14:59:20;;;;;;;3.38;1.80;;;;;;;;;;5024402;28;20532;-85
2023/03/31 15:01:47;;;;;;;2.35;1.45;;;;;;;;;;5022932;28;20026;-85
2023/03/31 15:04:20;;;;;;;2.33;1.20;;;;;;;;;;5026431;28;20442;-85
2023/03/31 15:06:47;;;;;;;2.88;1.20;;;;;;;;;;5026483;28;20037;-85
2023/03/31 15:09:39;;;;;;;2.25;1.33;;;;;;;;;;5022306;28;20093;-84
2023/03/31 15:12:13;;;;;;;2.58;1.42;;;;;;;;;;5019890;28;20041;-84
2023/03/31 15:14:45;;;;;;;2.42;1.30;;;;;;;;;;5007807;28;20124;-86
2023/03/31 15:17:23;;;;;;;5.75;1.50;;;;;;;;;;5005797;28;20033;-87
2023/03/31 15:19:59;;;;;;;3.47;1.60;;;;;;;;;;5004071;28;20183;-85